Check out our new PWSWeather beta!
PWSweather.com
Personal Weather Stations
Station Observations
WX18385
Broadalbin, NY

Broadalbin, NY

Lat: 43.081, Lon: -74.123

Elevation: -10000

Station Type:

High Low Average
Temperature 26.8°F-2.9°C -6.0°F-21.1°C 11.9°F-11.2°C
Dew Point 14.0°F-10.0°C -9.8°F-23.2°C 4.3°F-15.4°C
Winds 6.0 mph 9.7 kmh Calm Calm 1.0 mph S1.6 kmh S
Wind Gusts 7.0 mph11.3 kmh -- 1.0 mph1.6 kmh
Humidity 87% 42% 73%
Pressure 30.53 in1033.9 mb 30.26 in1024.7 mb -
Precipitation 0.00 in0.0 mm - -
Hour Temp Dew Point Humidity Winds Wind Gusts Pressure Precip Precip Rate Daily Precip Total
12:00 AM 9.1°F-12.7°C 3.7°F-15.7°C 78% Calm Calm -- 30.49 in1032.5 mb 0.00 in0.0 mm 0.00 in0.0 mm 0.00 in0.0 mm
12:05 AM 8.4°F-13.1°C 3.0°F-16.1°C 78% Calm Calm -- 30.49 in1032.5 mb 0.00 in0.0 mm 0.00 in0.0 mm 0.00 in0.0 mm
12:10 AM 8.2°F-13.2°C 3.3°F-15.9°C 80% Calm Calm -- 30.49 in1032.5 mb 0.00 in0.0 mm 0.00 in0.0 mm 0.00 in0.0 mm
12:15 AM 7.5°F-13.6°C 2.6°F-16.3°C 80% Calm Calm -- 30.49 in1032.5 mb 0.00 in0.0 mm 0.00 in0.0 mm 0.00 in0.0 mm
12:20 AM 7.2°F-13.8°C 2.6°F-16.3°C 81% Calm Calm -- 30.49 in1032.5 mb 0.00 in0.0 mm 0.00 in0.0 mm 0.00 in0.0 mm
12:25 AM 6.4°F-14.2°C 2.4°F-16.4°C 83% Calm Calm -- 30.49 in1032.5 mb 0.00 in0.0 mm 0.00 in0.0 mm 0.00 in0.0 mm
12:30 AM 5.9°F-14.5°C 2.1°F-16.6°C 84% Calm Calm -- 30.49 in1032.5 mb 0.00 in0.0 mm 0.00 in0.0 mm 0.00 in0.0 mm
12:35 AM 5.7°F-14.6°C 1.9°F-16.7°C 84% Calm Calm -- 30.49 in1032.5 mb 0.00 in0.0 mm 0.00 in0.0 mm 0.00 in0.0 mm
12:40 AM 5.2°F-14.9°C 1.7°F-16.8°C 85% Calm Calm -- 30.49 in1032.5 mb 0.00 in0.0 mm 0.00 in0.0 mm 0.00 in0.0 mm
12:45 AM 4.8°F-15.1°C 1.5°F-16.9°C 86% Calm Calm -- 30.49 in1032.5 mb 0.00 in0.0 mm 0.00 in0.0 mm 0.00 in0.0 mm
12:50 AM 4.6°F-15.2°C 1.4°F-17.0°C 86% Calm Calm -- 30.49 in1032.5 mb 0.00 in0.0 mm 0.00 in0.0 mm 0.00 in0.0 mm
12:55 AM 4.6°F-15.2°C 1.4°F-17.0°C 86% Calm Calm -- 30.49 in1032.5 mb 0.00 in0.0 mm 0.00 in0.0 mm 0.00 in0.0 mm
01:00 AM 4.8°F-15.1°C 1.5°F-16.9°C 86% Calm Calm -- 30.49 in1032.5 mb 0.00 in0.0 mm 0.00 in0.0 mm 0.00 in0.0 mm
01:05 AM 4.5°F-15.3°C 1.0°F-17.2°C 85% Calm Calm -- 30.49 in1032.5 mb 0.00 in0.0 mm 0.00 in0.0 mm 0.00 in0.0 mm
01:10 AM 4.5°F-15.3°C 1.0°F-17.2°C 85% Calm Calm -- 30.49 in1032.5 mb 0.00 in0.0 mm 0.00 in0.0 mm 0.00 in0.0 mm
01:15 AM 4.1°F-15.5°C 1.1°F-17.2°C 87% Calm Calm 2.0 mph3.2 kmh 30.49 in1032.5 mb 0.00 in0.0 mm 0.00 in0.0 mm 0.00 in0.0 mm
01:20 AM 4.6°F-15.2°C 1.4°F-17.0°C 86% 1.0 mph W1.6 kmh W 1.0 mph1.6 kmh 30.49 in1032.5 mb 0.00 in0.0 mm 0.00 in0.0 mm 0.00 in0.0 mm
01:26 AM 4.5°F-15.3°C 1.3°F-17.1°C 86% Calm Calm 1.0 mph1.6 kmh 30.49 in1032.5 mb 0.00 in0.0 mm 0.00 in0.0 mm 0.00 in0.0 mm
01:31 AM 4.6°F-15.2°C 1.1°F-17.2°C 85% Calm Calm -- 30.49 in1032.5 mb 0.00 in0.0 mm 0.00 in0.0 mm 0.00 in0.0 mm
01:36 AM 4.1°F-15.5°C 0.1°F-17.7°C 83% Calm Calm -- 30.49 in1032.5 mb 0.00 in0.0 mm 0.00 in0.0 mm 0.00 in0.0 mm
01:41 AM 4.1°F-15.5°C 0.1°F-17.7°C 83% Calm Calm -- 30.49 in1032.5 mb 0.00 in0.0 mm 0.00 in0.0 mm 0.00 in0.0 mm
01:47 AM 4.1°F-15.5°C 0.1°F-17.7°C 83% Calm Calm -- 30.49 in1032.5 mb 0.00 in0.0 mm 0.00 in0.0 mm 0.00 in0.0 mm
01:53 AM 3.7°F-15.7°C -0.3°F-17.9°C 83% Calm Calm -- 30.49 in1032.5 mb 0.00 in0.0 mm 0.00 in0.0 mm 0.00 in0.0 mm
01:59 AM 3.0°F-16.1°C -0.7°F-18.2°C 84% Calm Calm -- 30.49 in1032.5 mb 0.00 in0.0 mm 0.00 in0.0 mm 0.00 in0.0 mm
02:04 AM 3.0°F-16.1°C -0.7°F-18.2°C 84% Calm Calm -- 30.49 in1032.5 mb 0.00 in0.0 mm 0.00 in0.0 mm 0.00 in0.0 mm
02:10 AM 3.0°F-16.1°C -0.5°F-18.1°C 85% Calm Calm -- 30.49 in1032.5 mb 0.00 in0.0 mm 0.00 in0.0 mm 0.00 in0.0 mm
02:14 AM 2.5°F-16.4°C -1.2°F-18.4°C 84% Calm Calm -- 30.49 in1032.5 mb 0.00 in0.0 mm 0.00 in0.0 mm 0.00 in0.0 mm
02:20 AM 1.4°F-17.0°C -2.0°F-18.9°C 85% Calm Calm -- 30.49 in1032.5 mb 0.00 in0.0 mm 0.00 in0.0 mm 0.00 in0.0 mm
02:25 AM 1.0°F-17.2°C -1.9°F-18.8°C 87% Calm Calm -- 30.48 in1032.2 mb 0.00 in0.0 mm 0.00 in0.0 mm 0.00 in0.0 mm
02:30 AM 1.0°F-17.2°C -1.9°F-18.8°C 87% Calm Calm -- 30.48 in1032.2 mb 0.00 in0.0 mm 0.00 in0.0 mm 0.00 in0.0 mm
02:36 AM 1.2°F-17.1°C -2.0°F-18.9°C 86% Calm Calm -- 30.48 in1032.2 mb 0.00 in0.0 mm 0.00 in0.0 mm 0.00 in0.0 mm
02:41 AM 1.0°F-17.2°C -1.9°F-18.8°C 87% Calm Calm -- 30.48 in1032.2 mb 0.00 in0.0 mm 0.00 in0.0 mm 0.00 in0.0 mm
02:46 AM 1.2°F-17.1°C -2.0°F-18.9°C 86% Calm Calm -- 30.49 in1032.5 mb 0.00 in0.0 mm 0.00 in0.0 mm 0.00 in0.0 mm
02:51 AM 1.2°F-17.1°C -2.0°F-18.9°C 86% Calm Calm -- 30.48 in1032.2 mb 0.00 in0.0 mm 0.00 in0.0 mm 0.00 in0.0 mm
02:55 AM 1.0°F-17.2°C -2.2°F-19.0°C 86% Calm Calm -- 30.48 in1032.2 mb 0.00 in0.0 mm 0.00 in0.0 mm 0.00 in0.0 mm
03:00 AM 1.0°F-17.2°C -2.2°F-19.0°C 86% Calm Calm -- 30.48 in1032.2 mb 0.00 in0.0 mm 0.00 in0.0 mm 0.00 in0.0 mm
03:02 AM 1.0°F-17.2°C -2.2°F-19.0°C 86% Calm Calm -- 30.48 in1032.2 mb 0.00 in0.0 mm 0.00 in0.0 mm 0.00 in0.0 mm
03:09 AM 1.0°F-17.2°C -2.2°F-19.0°C 86% Calm Calm -- 30.48 in1032.2 mb 0.00 in0.0 mm 0.00 in0.0 mm 0.00 in0.0 mm
03:24 AM -1.3°F-18.5°C -4.7°F-20.4°C 85% Calm Calm -- 30.48 in1032.2 mb 0.00 in0.0 mm 0.00 in0.0 mm 0.00 in0.0 mm
03:28 AM -1.5°F-18.6°C -4.4°F-20.2°C 87% Calm Calm -- 30.48 in1032.2 mb 0.00 in0.0 mm 0.00 in0.0 mm 0.00 in0.0 mm
03:34 AM -1.7°F-18.7°C -4.6°F-20.3°C 87% Calm Calm -- 30.48 in1032.2 mb 0.00 in0.0 mm 0.00 in0.0 mm 0.00 in0.0 mm
03:39 AM -1.7°F-18.7°C -4.6°F-20.3°C 87% Calm Calm -- 30.48 in1032.2 mb 0.00 in0.0 mm 0.00 in0.0 mm 0.00 in0.0 mm
03:44 AM -1.3°F-18.5°C -4.2°F-20.1°C 87% Calm Calm -- 30.49 in1032.5 mb 0.00 in0.0 mm 0.00 in0.0 mm 0.00 in0.0 mm
03:49 AM -0.8°F-18.2°C -4.2°F-20.1°C 85% Calm Calm -- 30.48 in1032.2 mb 0.00 in0.0 mm 0.00 in0.0 mm 0.00 in0.0 mm
03:54 AM -1.3°F-18.5°C -4.7°F-20.4°C 85% Calm Calm -- 30.48 in1032.2 mb 0.00 in0.0 mm 0.00 in0.0 mm 0.00 in0.0 mm
03:59 AM -0.9°F-18.3°C -4.3°F-20.2°C 85% Calm Calm -- 30.48 in1032.2 mb 0.00 in0.0 mm 0.00 in0.0 mm 0.00 in0.0 mm
04:04 AM -1.8°F-18.8°C -5.2°F-20.7°C 85% Calm Calm -- 30.48 in1032.2 mb 0.00 in0.0 mm 0.00 in0.0 mm 0.00 in0.0 mm
04:09 AM -2.2°F-19.0°C -5.3°F-20.7°C 86% Calm Calm -- 30.49 in1032.5 mb 0.00 in0.0 mm 0.00 in0.0 mm 0.00 in0.0 mm
04:14 AM -2.2°F-19.0°C -5.3°F-20.7°C 86% Calm Calm -- 30.49 in1032.5 mb 0.00 in0.0 mm 0.00 in0.0 mm 0.00 in0.0 mm
04:19 AM -1.8°F-18.8°C -4.7°F-20.4°C 87% Calm Calm -- 30.48 in1032.2 mb 0.00 in0.0 mm 0.00 in0.0 mm 0.00 in0.0 mm
04:24 AM -1.8°F-18.8°C -4.9°F-20.5°C 86% Calm Calm -- 30.48 in1032.2 mb 0.00 in0.0 mm 0.00 in0.0 mm 0.00 in0.0 mm
04:30 AM -1.8°F-18.8°C -5.2°F-20.7°C 85% Calm Calm -- 30.48 in1032.2 mb 0.00 in0.0 mm 0.00 in0.0 mm 0.00 in0.0 mm
04:35 AM -1.8°F-18.8°C -5.2°F-20.7°C 85% Calm Calm -- 30.49 in1032.5 mb 0.00 in0.0 mm 0.00 in0.0 mm 0.00 in0.0 mm
04:40 AM -2.2°F-19.0°C -5.8°F-21.0°C 84% Calm Calm -- 30.49 in1032.5 mb 0.00 in0.0 mm 0.00 in0.0 mm 0.00 in0.0 mm
04:44 AM -2.7°F-19.3°C -6.3°F-21.3°C 84% Calm Calm -- 30.49 in1032.5 mb 0.00 in0.0 mm 0.00 in0.0 mm 0.00 in0.0 mm
04:50 AM -2.6°F-19.2°C -6.0°F-21.1°C 85% Calm Calm -- 30.49 in1032.5 mb 0.00 in0.0 mm 0.00 in0.0 mm 0.00 in0.0 mm
04:54 AM -2.2°F-19.0°C -5.6°F-20.9°C 85% Calm Calm -- 30.49 in1032.5 mb 0.00 in0.0 mm 0.00 in0.0 mm 0.00 in0.0 mm
05:00 AM -2.7°F-19.3°C -6.3°F-21.3°C 84% Calm Calm -- 30.49 in1032.5 mb 0.00 in0.0 mm 0.00 in0.0 mm 0.00 in0.0 mm
05:05 AM -2.9°F-19.4°C -6.3°F-21.3°C 85% Calm Calm -- 30.49 in1032.5 mb 0.00 in0.0 mm 0.00 in0.0 mm 0.00 in0.0 mm
05:10 AM -2.9°F-19.4°C -6.3°F-21.3°C 85% Calm Calm -- 30.49 in1032.5 mb 0.00 in0.0 mm 0.00 in0.0 mm 0.00 in0.0 mm
05:15 AM -4.0°F-20.0°C -7.3°F-21.8°C 85% Calm Calm -- 30.49 in1032.5 mb 0.00 in0.0 mm 0.00 in0.0 mm 0.00 in0.0 mm
05:19 AM -3.8°F-19.9°C -6.9°F-21.6°C 86% Calm Calm -- 30.49 in1032.5 mb 0.00 in0.0 mm 0.00 in0.0 mm 0.00 in0.0 mm
05:24 AM -3.8°F-19.9°C -6.9°F-21.6°C 86% Calm Calm -- 30.49 in1032.5 mb 0.00 in0.0 mm 0.00 in0.0 mm 0.00 in0.0 mm
05:30 AM -3.3°F-19.6°C -6.4°F-21.3°C 86% Calm Calm -- 30.49 in1032.5 mb 0.00 in0.0 mm 0.00 in0.0 mm 0.00 in0.0 mm
05:34 AM -3.5°F-19.7°C -7.1°F-21.7°C 84% Calm Calm -- 30.50 in1032.8 mb 0.00 in0.0 mm 0.00 in0.0 mm 0.00 in0.0 mm
05:39 AM -3.5°F-19.7°C -6.9°F-21.6°C 85% Calm Calm -- 30.50 in1032.8 mb 0.00 in0.0 mm 0.00 in0.0 mm 0.00 in0.0 mm
05:45 AM -3.8°F-19.9°C -7.2°F-21.8°C 85% Calm Calm -- 30.50 in1032.8 mb 0.00 in0.0 mm 0.00 in0.0 mm 0.00 in0.0 mm
05:49 AM -3.3°F-19.6°C -6.7°F-21.5°C 85% Calm Calm -- 30.50 in1032.8 mb 0.00 in0.0 mm 0.00 in0.0 mm 0.00 in0.0 mm
05:55 AM -4.4°F-20.2°C -8.0°F-22.2°C 84% Calm Calm -- 30.50 in1032.8 mb 0.00 in0.0 mm 0.00 in0.0 mm 0.00 in0.0 mm
06:00 AM -4.4°F-20.2°C -7.7°F-22.1°C 85% Calm Calm -- 30.50 in1032.8 mb 0.00 in0.0 mm 0.00 in0.0 mm 0.00 in0.0 mm
06:04 AM -5.1°F-20.6°C -8.7°F-22.6°C 84% Calm Calm -- 30.51 in1033.2 mb 0.00 in0.0 mm 0.00 in0.0 mm 0.00 in0.0 mm
06:10 AM -4.9°F-20.5°C -8.2°F-22.3°C 85% Calm Calm -- 30.51 in1033.2 mb 0.00 in0.0 mm 0.00 in0.0 mm 0.00 in0.0 mm
06:15 AM -5.4°F-20.8°C -8.5°F-22.5°C 86% Calm Calm -- 30.50 in1032.8 mb 0.00 in0.0 mm 0.00 in0.0 mm 0.00 in0.0 mm
06:20 AM -4.7°F-20.4°C -8.0°F-22.2°C 85% Calm Calm -- 30.51 in1033.2 mb 0.00 in0.0 mm 0.00 in0.0 mm 0.00 in0.0 mm
06:25 AM -5.3°F-20.7°C -8.9°F-22.7°C 84% Calm Calm -- 30.51 in1033.2 mb 0.00 in0.0 mm 0.00 in0.0 mm 0.00 in0.0 mm
06:29 AM -4.5°F-20.3°C -8.1°F-22.3°C 84% Calm Calm -- 30.51 in1033.2 mb 0.00 in0.0 mm 0.00 in0.0 mm 0.00 in0.0 mm
06:35 AM -5.1°F-20.6°C -8.7°F-22.6°C 84% Calm Calm -- 30.51 in1033.2 mb 0.00 in0.0 mm 0.00 in0.0 mm 0.00 in0.0 mm
06:40 AM -5.3°F-20.7°C -8.9°F-22.7°C 84% Calm Calm -- 30.51 in1033.2 mb 0.00 in0.0 mm 0.00 in0.0 mm 0.00 in0.0 mm
06:45 AM -5.3°F-20.7°C -9.1°F-22.8°C 83% Calm Calm -- 30.51 in1033.2 mb 0.00 in0.0 mm 0.00 in0.0 mm 0.00 in0.0 mm
06:50 AM -5.4°F-20.8°C -9.2°F-22.9°C 83% Calm Calm -- 30.51 in1033.2 mb 0.00 in0.0 mm 0.00 in0.0 mm 0.00 in0.0 mm
06:54 AM -5.4°F-20.8°C -9.2°F-22.9°C 83% Calm Calm -- 30.51 in1033.2 mb 0.00 in0.0 mm 0.00 in0.0 mm 0.00 in0.0 mm
06:59 AM -5.6°F-20.9°C -9.2°F-22.9°C 84% Calm Calm -- 30.51 in1033.2 mb 0.00 in0.0 mm 0.00 in0.0 mm 0.00 in0.0 mm
07:05 AM -5.8°F-21.0°C -9.4°F-23.0°C 84% Calm Calm -- 30.51 in1033.2 mb 0.00 in0.0 mm 0.00 in0.0 mm 0.00 in0.0 mm
07:10 AM -5.4°F-20.8°C -9.0°F-22.8°C 84% Calm Calm -- 30.51 in1033.2 mb 0.00 in0.0 mm 0.00 in0.0 mm 0.00 in0.0 mm
07:14 AM -5.3°F-20.7°C -8.9°F-22.7°C 84% Calm Calm -- 30.51 in1033.2 mb 0.00 in0.0 mm 0.00 in0.0 mm 0.00 in0.0 mm
07:19 AM -5.3°F-20.7°C -8.9°F-22.7°C 84% Calm Calm -- 30.51 in1033.2 mb 0.00 in0.0 mm 0.00 in0.0 mm 0.00 in0.0 mm
07:24 AM -6.0°F-21.1°C -9.8°F-23.2°C 83% Calm Calm -- 30.51 in1033.2 mb 0.00 in0.0 mm 0.00 in0.0 mm 0.00 in0.0 mm
07:29 AM -6.0°F-21.1°C -9.3°F-22.9°C 85% Calm Calm -- 30.51 in1033.2 mb 0.00 in0.0 mm 0.00 in0.0 mm 0.00 in0.0 mm
07:34 AM -6.0°F-21.1°C -9.3°F-22.9°C 85% Calm Calm -- 30.51 in1033.2 mb 0.00 in0.0 mm 0.00 in0.0 mm 0.00 in0.0 mm
07:39 AM -4.5°F-20.3°C -7.6°F-22.0°C 86% Calm Calm -- 30.52 in1033.5 mb 0.00 in0.0 mm 0.00 in0.0 mm 0.00 in0.0 mm
07:44 AM -4.5°F-20.3°C -7.8°F-22.1°C 85% Calm Calm -- 30.52 in1033.5 mb 0.00 in0.0 mm 0.00 in0.0 mm 0.00 in0.0 mm
07:49 AM -3.8°F-19.9°C -7.2°F-21.8°C 85% Calm Calm -- 30.52 in1033.5 mb 0.00 in0.0 mm 0.00 in0.0 mm 0.00 in0.0 mm
07:54 AM -3.6°F-19.8°C -6.7°F-21.5°C 86% Calm Calm -- 30.52 in1033.5 mb 0.00 in0.0 mm 0.00 in0.0 mm 0.00 in0.0 mm
07:59 AM -2.0°F-18.9°C -5.6°F-20.9°C 84% Calm Calm -- 30.53 in1033.9 mb 0.00 in0.0 mm 0.00 in0.0 mm 0.00 in0.0 mm
08:04 AM -1.8°F-18.8°C -5.4°F-20.8°C 84% Calm Calm -- 30.53 in1033.9 mb 0.00 in0.0 mm 0.00 in0.0 mm 0.00 in0.0 mm
08:09 AM -0.9°F-18.3°C -4.5°F-20.3°C 84% Calm Calm -- 30.53 in1033.9 mb 0.00 in0.0 mm 0.00 in0.0 mm 0.00 in0.0 mm
08:14 AM 1.0°F-17.2°C -2.9°F-19.4°C 83% Calm Calm -- 30.53 in1033.9 mb 0.00 in0.0 mm 0.00 in0.0 mm 0.00 in0.0 mm
08:19 AM 2.3°F-16.5°C -1.9°F-18.8°C 82% Calm Calm -- 30.53 in1033.9 mb 0.00 in0.0 mm 0.00 in0.0 mm 0.00 in0.0 mm
08:24 AM 3.2°F-16.0°C -1.0°F-18.3°C 82% Calm Calm -- 30.53 in1033.9 mb 0.00 in0.0 mm 0.00 in0.0 mm 0.00 in0.0 mm
08:29 AM 6.1°F-14.4°C 1.0°F-17.2°C 79% Calm Calm -- 30.53 in1033.9 mb 0.00 in0.0 mm 0.00 in0.0 mm 0.00 in0.0 mm
08:34 AM 8.4°F-13.1°C 1.6°F-16.9°C 73% Calm Calm -- 30.53 in1033.9 mb 0.00 in0.0 mm 0.00 in0.0 mm 0.00 in0.0 mm
08:39 AM 8.4°F-13.1°C 1.8°F-16.8°C 74% Calm Calm -- 30.53 in1033.9 mb 0.00 in0.0 mm 0.00 in0.0 mm 0.00 in0.0 mm
08:44 AM 13.1°F-10.5°C 3.6°F-15.8°C 65% Calm Calm -- 30.53 in1033.9 mb 0.00 in0.0 mm 0.00 in0.0 mm 0.00 in0.0 mm
08:49 AM 11.8°F-11.2°C 3.3°F-15.9°C 68% Calm Calm -- 30.53 in1033.9 mb 0.00 in0.0 mm 0.00 in0.0 mm 0.00 in0.0 mm
08:54 AM 15.1°F-9.4°C 3.0°F-16.1°C 58% Calm Calm -- 30.53 in1033.9 mb 0.00 in0.0 mm 0.00 in0.0 mm 0.00 in0.0 mm
08:59 AM 15.6°F-9.1°C 3.5°F-15.8°C 58% 2.0 mph SW3.2 kmh SW 2.0 mph3.2 kmh 30.52 in1033.5 mb 0.00 in0.0 mm 0.00 in0.0 mm 0.00 in0.0 mm
09:04 AM 12.9°F-10.6°C 1.7°F-16.8°C 60% Calm Calm 2.0 mph3.2 kmh 30.52 in1033.5 mb 0.00 in0.0 mm 0.00 in0.0 mm 0.00 in0.0 mm
09:09 AM 12.6°F-10.8°C 3.4°F-15.9°C 66% Calm Calm -- 30.52 in1033.5 mb 0.00 in0.0 mm 0.00 in0.0 mm 0.00 in0.0 mm
09:14 AM 15.4°F-9.2°C 5.4°F-14.8°C 64% Calm Calm 1.0 mph1.6 kmh 30.52 in1033.5 mb 0.00 in0.0 mm 0.00 in0.0 mm 0.00 in0.0 mm
09:19 AM 16.2°F-8.8°C 5.1°F-14.9°C 61% Calm Calm -- 30.52 in1033.5 mb 0.00 in0.0 mm 0.00 in0.0 mm 0.00 in0.0 mm
09:24 AM 12.9°F-10.6°C 2.0°F-16.7°C 61% 1.0 mph ESE1.6 kmh ESE 2.0 mph3.2 kmh 30.52 in1033.5 mb 0.00 in0.0 mm 0.00 in0.0 mm 0.00 in0.0 mm
09:29 AM 12.7°F-10.7°C 0.8°F-17.3°C 58% 2.0 mph ESE3.2 kmh ESE 3.0 mph4.8 kmh 30.52 in1033.5 mb 0.00 in0.0 mm 0.00 in0.0 mm 0.00 in0.0 mm
09:34 AM 12.9°F-10.6°C 1.3°F-17.1°C 59% 1.0 mph NNW1.6 kmh NNW 2.0 mph3.2 kmh 30.52 in1033.5 mb 0.00 in0.0 mm 0.00 in0.0 mm 0.00 in0.0 mm
09:39 AM 14.2°F-9.9°C 2.2°F-16.6°C 58% Calm Calm -- 30.51 in1033.2 mb 0.00 in0.0 mm 0.00 in0.0 mm 0.00 in0.0 mm
09:44 AM 19.9°F-6.7°C 5.1°F-14.9°C 52% Calm Calm 1.0 mph1.6 kmh 30.51 in1033.2 mb 0.00 in0.0 mm 0.00 in0.0 mm 0.00 in0.0 mm
09:49 AM 18.3°F-7.6°C 3.2°F-16.0°C 51% 1.0 mph E1.6 kmh E 2.0 mph3.2 kmh 30.51 in1033.2 mb 0.00 in0.0 mm 0.00 in0.0 mm 0.00 in0.0 mm
09:54 AM 18.9°F-7.3°C 3.4°F-15.9°C 50% Calm Calm -- 30.51 in1033.2 mb 0.00 in0.0 mm 0.00 in0.0 mm 0.00 in0.0 mm
09:59 AM 16.3°F-8.7°C 1.4°F-17.0°C 51% 1.0 mph WNW1.6 kmh WNW 3.0 mph4.8 kmh 30.51 in1033.2 mb 0.00 in0.0 mm 0.00 in0.0 mm 0.00 in0.0 mm
10:04 AM 18.0°F-7.8°C 2.5°F-16.4°C 50% Calm Calm 2.0 mph3.2 kmh 30.51 in1033.2 mb 0.00 in0.0 mm 0.00 in0.0 mm 0.00 in0.0 mm
10:09 AM 20.3°F-6.5°C 0.9°F-17.3°C 42% 3.0 mph W4.8 kmh W 3.0 mph4.8 kmh 30.51 in1033.2 mb 0.00 in0.0 mm 0.00 in0.0 mm 0.00 in0.0 mm
10:15 AM 19.6°F-6.9°C 0.3°F-17.6°C 42% 2.0 mph W3.2 kmh W 2.0 mph3.2 kmh 30.52 in1033.5 mb 0.00 in0.0 mm 0.00 in0.0 mm 0.00 in0.0 mm
10:19 AM 20.1°F-6.6°C 0.7°F-17.4°C 42% 2.0 mph WNW3.2 kmh WNW 3.0 mph4.8 kmh 30.51 in1033.2 mb 0.00 in0.0 mm 0.00 in0.0 mm 0.00 in0.0 mm
10:24 AM 20.5°F-6.4°C 1.6°F-16.9°C 43% 3.0 mph E4.8 kmh E 3.0 mph4.8 kmh 30.51 in1033.2 mb 0.00 in0.0 mm 0.00 in0.0 mm 0.00 in0.0 mm
10:29 AM 19.9°F-6.7°C 2.5°F-16.4°C 46% 3.0 mph ESE4.8 kmh ESE 3.0 mph4.8 kmh 30.51 in1033.2 mb 0.00 in0.0 mm 0.00 in0.0 mm 0.00 in0.0 mm
10:35 AM 18.5°F-7.5°C 1.7°F-16.8°C 47% 1.0 mph E1.6 kmh E 3.0 mph4.8 kmh 30.51 in1033.2 mb 0.00 in0.0 mm 0.00 in0.0 mm 0.00 in0.0 mm
10:40 AM 19.4°F-7.0°C 4.3°F-15.4°C 51% 1.0 mph ENE1.6 kmh ENE 3.0 mph4.8 kmh 30.51 in1033.2 mb 0.00 in0.0 mm 0.00 in0.0 mm 0.00 in0.0 mm
10:44 AM 20.3°F-6.5°C 2.4°F-16.4°C 45% 2.0 mph 3.2 kmh 3.0 mph4.8 kmh 30.51 in1033.2 mb 0.00 in0.0 mm 0.00 in0.0 mm 0.00 in0.0 mm
10:50 AM 20.5°F-6.4°C 2.1°F-16.6°C 44% 3.0 mph ESE4.8 kmh ESE 3.0 mph4.8 kmh 30.51 in1033.2 mb 0.00 in0.0 mm 0.00 in0.0 mm 0.00 in0.0 mm
10:55 AM 23.5°F-4.7°C 4.8°F-15.1°C 44% 4.0 mph W6.4 kmh W 4.0 mph6.4 kmh 30.51 in1033.2 mb 0.00 in0.0 mm 0.00 in0.0 mm 0.00 in0.0 mm
11:00 AM 23.5°F-4.7°C 4.8°F-15.1°C 44% 2.0 mph ESE3.2 kmh ESE 3.0 mph4.8 kmh 30.51 in1033.2 mb 0.00 in0.0 mm 0.00 in0.0 mm 0.00 in0.0 mm
11:04 AM 24.3°F-4.3°C 7.0°F-13.9°C 47% 2.0 mph W3.2 kmh W 2.0 mph3.2 kmh 30.51 in1033.2 mb 0.00 in0.0 mm 0.00 in0.0 mm 0.00 in0.0 mm
11:09 AM 22.8°F-5.1°C 4.2°F-15.4°C 44% 2.0 mph NE3.2 kmh NE 2.0 mph3.2 kmh 30.51 in1033.2 mb 0.00 in0.0 mm 0.00 in0.0 mm 0.00 in0.0 mm
11:15 AM 23.9°F-4.5°C 6.2°F-14.3°C 46% 2.0 mph ESE3.2 kmh ESE 3.0 mph4.8 kmh 30.51 in1033.2 mb 0.00 in0.0 mm 0.00 in0.0 mm 0.00 in0.0 mm
11:20 AM 24.1°F-4.4°C 7.7°F-13.5°C 49% 1.0 mph WNW1.6 kmh WNW 4.0 mph6.4 kmh 30.51 in1033.2 mb 0.00 in0.0 mm 0.00 in0.0 mm 0.00 in0.0 mm
11:25 AM 26.8°F-2.9°C 8.8°F-12.9°C 46% 2.0 mph WSW3.2 kmh WSW 4.0 mph6.4 kmh 30.51 in1033.2 mb 0.00 in0.0 mm 0.00 in0.0 mm 0.00 in0.0 mm
11:30 AM 22.8°F-5.1°C 6.5°F-14.2°C 49% 4.0 mph ESE6.4 kmh ESE 4.0 mph6.4 kmh 30.50 in1032.8 mb 0.00 in0.0 mm 0.00 in0.0 mm 0.00 in0.0 mm
11:35 AM 23.0°F-5.0°C 7.2°F-13.8°C 50% 4.0 mph W6.4 kmh W 4.0 mph6.4 kmh 30.50 in1032.8 mb 0.00 in0.0 mm 0.00 in0.0 mm 0.00 in0.0 mm
11:40 AM 22.8°F-5.1°C 7.4°F-13.7°C 51% 4.0 mph WSW6.4 kmh WSW 5.0 mph8.0 kmh 30.50 in1032.8 mb 0.00 in0.0 mm 0.00 in0.0 mm 0.00 in0.0 mm
11:45 AM 21.6°F-5.8°C 7.1°F-13.8°C 53% 3.0 mph E4.8 kmh E 3.0 mph4.8 kmh 30.50 in1032.8 mb 0.00 in0.0 mm 0.00 in0.0 mm 0.00 in0.0 mm
11:50 AM 22.1°F-5.5°C 8.0°F-13.3°C 54% 4.0 mph W6.4 kmh W 6.0 mph9.7 kmh 30.49 in1032.5 mb 0.00 in0.0 mm 0.00 in0.0 mm 0.00 in0.0 mm
11:55 AM 22.5°F-5.3°C 8.0°F-13.3°C 53% 5.0 mph W8.0 kmh W 6.0 mph9.7 kmh 30.49 in1032.5 mb 0.00 in0.0 mm 0.00 in0.0 mm 0.00 in0.0 mm
12:00 PM 21.4°F-5.9°C 7.4°F-13.7°C 54% 4.0 mph W6.4 kmh W 5.0 mph8.0 kmh 30.49 in1032.5 mb 0.00 in0.0 mm 0.00 in0.0 mm 0.00 in0.0 mm
12:05 PM 22.5°F-5.3°C 8.8°F-12.9°C 55% 2.0 mph NNW3.2 kmh NNW 4.0 mph6.4 kmh 30.49 in1032.5 mb 0.00 in0.0 mm 0.00 in0.0 mm 0.00 in0.0 mm
12:10 PM 22.3°F-5.4°C 8.2°F-13.2°C 54% 3.0 mph W4.8 kmh W 5.0 mph8.0 kmh 30.48 in1032.2 mb 0.00 in0.0 mm 0.00 in0.0 mm 0.00 in0.0 mm
12:15 PM 22.6°F-5.2°C 8.9°F-12.8°C 55% 6.0 mph W9.7 kmh W 6.0 mph9.7 kmh 30.48 in1032.2 mb 0.00 in0.0 mm 0.00 in0.0 mm 0.00 in0.0 mm
12:20 PM 23.2°F-4.9°C 9.9°F-12.3°C 56% 2.0 mph SE3.2 kmh SE 5.0 mph8.0 kmh 30.48 in1032.2 mb 0.00 in0.0 mm 0.00 in0.0 mm 0.00 in0.0 mm
12:25 PM 22.5°F-5.3°C 10.0°F-12.2°C 58% 2.0 mph SE3.2 kmh SE 5.0 mph8.0 kmh 30.47 in1031.8 mb 0.00 in0.0 mm 0.00 in0.0 mm 0.00 in0.0 mm
12:30 PM 22.3°F-5.4°C 9.8°F-12.3°C 58% 3.0 mph ESE4.8 kmh ESE 5.0 mph8.0 kmh 30.47 in1031.8 mb 0.00 in0.0 mm 0.00 in0.0 mm 0.00 in0.0 mm
12:35 PM 22.8°F-5.1°C 11.8°F-11.2°C 62% 2.0 mph W3.2 kmh W 5.0 mph8.0 kmh 30.47 in1031.8 mb 0.00 in0.0 mm 0.00 in0.0 mm 0.00 in0.0 mm
12:40 PM 22.3°F-5.4°C 11.3°F-11.5°C 62% 4.0 mph ENE6.4 kmh ENE 6.0 mph9.7 kmh 30.47 in1031.8 mb 0.00 in0.0 mm 0.00 in0.0 mm 0.00 in0.0 mm
12:45 PM 22.5°F-5.3°C 11.5°F-11.4°C 62% 2.0 mph ENE3.2 kmh ENE 6.0 mph9.7 kmh 30.47 in1031.8 mb 0.00 in0.0 mm 0.00 in0.0 mm 0.00 in0.0 mm
12:50 PM 23.4°F-4.8°C 12.0°F-11.1°C 61% 4.0 mph ESE6.4 kmh ESE 4.0 mph6.4 kmh 30.46 in1031.5 mb 0.00 in0.0 mm 0.00 in0.0 mm 0.00 in0.0 mm
12:55 PM 23.7°F-4.6°C 11.9°F-11.2°C 60% 6.0 mph SSW9.7 kmh SSW 6.0 mph9.7 kmh 30.46 in1031.5 mb 0.00 in0.0 mm 0.00 in0.0 mm 0.00 in0.0 mm
01:00 PM 23.2°F-4.9°C 11.4°F-11.4°C 60% 2.0 mph W3.2 kmh W 6.0 mph9.7 kmh 30.45 in1031.2 mb 0.00 in0.0 mm 0.00 in0.0 mm 0.00 in0.0 mm
01:05 PM 23.7°F-4.6°C 12.2°F-11.0°C 61% 4.0 mph W6.4 kmh W 4.0 mph6.4 kmh 30.45 in1031.2 mb 0.00 in0.0 mm 0.00 in0.0 mm 0.00 in0.0 mm
01:10 PM 24.3°F-4.3°C 12.1°F-11.1°C 59% 4.0 mph ESE6.4 kmh ESE 4.0 mph6.4 kmh 30.45 in1031.2 mb 0.00 in0.0 mm 0.00 in0.0 mm 0.00 in0.0 mm
01:15 PM 24.8°F-4.0°C 12.5°F-10.8°C 59% 3.0 mph NE4.8 kmh NE 7.0 mph11.3 kmh 30.45 in1031.2 mb 0.00 in0.0 mm 0.00 in0.0 mm 0.00 in0.0 mm
01:20 PM 25.2°F-3.8°C 12.5°F-10.8°C 58% 2.0 mph W3.2 kmh W 5.0 mph8.0 kmh 30.44 in1030.8 mb 0.00 in0.0 mm 0.00 in0.0 mm 0.00 in0.0 mm
01:25 PM 24.6°F-4.1°C 12.3°F-10.9°C 59% 4.0 mph ESE6.4 kmh ESE 5.0 mph8.0 kmh 30.44 in1030.8 mb 0.00 in0.0 mm 0.00 in0.0 mm 0.00 in0.0 mm
01:30 PM 24.6°F-4.1°C 12.0°F-11.1°C 58% 3.0 mph ESE4.8 kmh ESE 6.0 mph9.7 kmh 30.44 in1030.8 mb 0.00 in0.0 mm 0.00 in0.0 mm 0.00 in0.0 mm
01:35 PM 24.6°F-4.1°C 12.7°F-10.7°C 60% 4.0 mph ESE6.4 kmh ESE 5.0 mph8.0 kmh 30.44 in1030.8 mb 0.00 in0.0 mm 0.00 in0.0 mm 0.00 in0.0 mm
01:40 PM 24.8°F-4.0°C 12.5°F-10.8°C 59% 3.0 mph ESE4.8 kmh ESE 5.0 mph8.0 kmh 30.44 in1030.8 mb 0.00 in0.0 mm 0.00 in0.0 mm 0.00 in0.0 mm
01:45 PM 24.4°F-4.2°C 13.3°F-10.4°C 62% 2.0 mph NNW3.2 kmh NNW 5.0 mph8.0 kmh 30.44 in1030.8 mb 0.00 in0.0 mm 0.00 in0.0 mm 0.00 in0.0 mm
01:50 PM 24.4°F-4.2°C 12.9°F-10.6°C 61% 1.0 mph W1.6 kmh W 4.0 mph6.4 kmh 30.44 in1030.8 mb 0.00 in0.0 mm 0.00 in0.0 mm 0.00 in0.0 mm
01:55 PM 24.4°F-4.2°C 12.2°F-11.0°C 59% 3.0 mph ESE4.8 kmh ESE 5.0 mph8.0 kmh 30.43 in1030.5 mb 0.00 in0.0 mm 0.00 in0.0 mm 0.00 in0.0 mm
02:00 PM 24.3°F-4.3°C 13.2°F-10.4°C 62% 5.0 mph NE8.0 kmh NE 5.0 mph8.0 kmh 30.43 in1030.5 mb 0.00 in0.0 mm 0.00 in0.0 mm 0.00 in0.0 mm
02:05 PM 24.1°F-4.4°C 12.6°F-10.8°C 61% 3.0 mph ESE4.8 kmh ESE 5.0 mph8.0 kmh 30.43 in1030.5 mb 0.00 in0.0 mm 0.00 in0.0 mm 0.00 in0.0 mm
02:10 PM 24.1°F-4.4°C 13.0°F-10.6°C 62% 3.0 mph NE4.8 kmh NE 5.0 mph8.0 kmh 30.43 in1030.5 mb 0.00 in0.0 mm 0.00 in0.0 mm 0.00 in0.0 mm
02:15 PM 24.3°F-4.3°C 13.5°F-10.3°C 63% Calm Calm 4.0 mph6.4 kmh 30.42 in1030.1 mb 0.00 in0.0 mm 0.00 in0.0 mm 0.00 in0.0 mm
02:20 PM 24.3°F-4.3°C 13.5°F-10.3°C 63% 4.0 mph W6.4 kmh W 4.0 mph6.4 kmh 30.42 in1030.1 mb 0.00 in0.0 mm 0.00 in0.0 mm 0.00 in0.0 mm
02:25 PM 24.3°F-4.3°C 13.5°F-10.3°C 63% 2.0 mph WNW3.2 kmh WNW 5.0 mph8.0 kmh 30.42 in1030.1 mb 0.00 in0.0 mm 0.00 in0.0 mm 0.00 in0.0 mm
02:30 PM 24.4°F-4.2°C 13.3°F-10.4°C 62% 2.0 mph WNW3.2 kmh WNW 6.0 mph9.7 kmh 30.42 in1030.1 mb 0.00 in0.0 mm 0.00 in0.0 mm 0.00 in0.0 mm
02:35 PM 24.4°F-4.2°C 14.0°F-10.0°C 64% 4.0 mph ESE6.4 kmh ESE 5.0 mph8.0 kmh 30.42 in1030.1 mb 0.00 in0.0 mm 0.00 in0.0 mm 0.00 in0.0 mm
02:40 PM 24.4°F-4.2°C 13.6°F-10.2°C 63% 1.0 mph ENE1.6 kmh ENE 5.0 mph8.0 kmh 30.42 in1030.1 mb 0.00 in0.0 mm 0.00 in0.0 mm 0.00 in0.0 mm
02:45 PM 25.0°F-3.9°C 13.1°F-10.5°C 60% 2.0 mph ESE3.2 kmh ESE 3.0 mph4.8 kmh 30.42 in1030.1 mb 0.00 in0.0 mm 0.00 in0.0 mm 0.00 in0.0 mm
02:50 PM 24.6°F-4.1°C 12.7°F-10.7°C 60% 5.0 mph ESE8.0 kmh ESE 5.0 mph8.0 kmh 30.41 in1029.8 mb 0.00 in0.0 mm 0.00 in0.0 mm 0.00 in0.0 mm
02:55 PM 24.6°F-4.1°C 13.1°F-10.5°C 61% 3.0 mph E4.8 kmh E 4.0 mph6.4 kmh 30.41 in1029.8 mb 0.00 in0.0 mm 0.00 in0.0 mm 0.00 in0.0 mm
03:00 PM 25.0°F-3.9°C 13.1°F-10.5°C 60% 4.0 mph E6.4 kmh E 5.0 mph8.0 kmh 30.41 in1029.8 mb 0.00 in0.0 mm 0.00 in0.0 mm 0.00 in0.0 mm
03:05 PM 24.8°F-4.0°C 12.5°F-10.8°C 59% 3.0 mph ESE4.8 kmh ESE 6.0 mph9.7 kmh 30.41 in1029.8 mb 0.00 in0.0 mm 0.00 in0.0 mm 0.00 in0.0 mm
03:10 PM 24.8°F-4.0°C 12.9°F-10.6°C 60% 2.0 mph ESE3.2 kmh ESE 4.0 mph6.4 kmh 30.41 in1029.8 mb 0.00 in0.0 mm 0.00 in0.0 mm 0.00 in0.0 mm
03:15 PM 25.0°F-3.9°C 12.7°F-10.7°C 59% Calm Calm 3.0 mph4.8 kmh 30.40 in1029.5 mb 0.00 in0.0 mm 0.00 in0.0 mm 0.00 in0.0 mm
03:20 PM 24.8°F-4.0°C 13.7°F-10.2°C 62% 3.0 mph WNW4.8 kmh WNW 4.0 mph6.4 kmh 30.40 in1029.5 mb 0.00 in0.0 mm 0.00 in0.0 mm 0.00 in0.0 mm
03:25 PM 24.8°F-4.0°C 13.7°F-10.2°C 62% 3.0 mph W4.8 kmh W 3.0 mph4.8 kmh 30.40 in1029.5 mb 0.00 in0.0 mm 0.00 in0.0 mm 0.00 in0.0 mm
03:30 PM 24.8°F-4.0°C 13.7°F-10.2°C 62% 1.0 mph E1.6 kmh E 3.0 mph4.8 kmh 30.40 in1029.5 mb 0.00 in0.0 mm 0.00 in0.0 mm 0.00 in0.0 mm
03:35 PM 25.0°F-3.9°C 11.9°F-11.2°C 57% 4.0 mph ESE6.4 kmh ESE 4.0 mph6.4 kmh 30.40 in1029.5 mb 0.00 in0.0 mm 0.00 in0.0 mm 0.00 in0.0 mm
03:40 PM 25.3°F-3.7°C 12.6°F-10.8°C 58% 4.0 mph W6.4 kmh W 4.0 mph6.4 kmh 30.40 in1029.5 mb 0.00 in0.0 mm 0.00 in0.0 mm 0.00 in0.0 mm
03:45 PM 25.2°F-3.8°C 13.7°F-10.2°C 61% 2.0 mph NE3.2 kmh NE 3.0 mph4.8 kmh 30.40 in1029.5 mb 0.00 in0.0 mm 0.00 in0.0 mm 0.00 in0.0 mm
03:50 PM 25.3°F-3.7°C 11.8°F-11.2°C 56% 3.0 mph ESE4.8 kmh ESE 5.0 mph8.0 kmh 30.39 in1029.1 mb 0.00 in0.0 mm 0.00 in0.0 mm 0.00 in0.0 mm
03:55 PM 25.0°F-3.9°C 11.9°F-11.2°C 57% 2.0 mph SSE3.2 kmh SSE 4.0 mph6.4 kmh 30.39 in1029.1 mb 0.00 in0.0 mm 0.00 in0.0 mm 0.00 in0.0 mm
04:00 PM 25.0°F-3.9°C 11.1°F-11.6°C 55% 2.0 mph E3.2 kmh E 4.0 mph6.4 kmh 30.39 in1029.1 mb 0.00 in0.0 mm 0.00 in0.0 mm 0.00 in0.0 mm
04:05 PM 25.0°F-3.9°C 11.9°F-11.2°C 57% 2.0 mph ESE3.2 kmh ESE 4.0 mph6.4 kmh 30.39 in1029.1 mb 0.00 in0.0 mm 0.00 in0.0 mm 0.00 in0.0 mm
04:10 PM 25.0°F-3.9°C 11.5°F-11.4°C 56% 3.0 mph ESE4.8 kmh ESE 5.0 mph8.0 kmh 30.38 in1028.8 mb 0.00 in0.0 mm 0.00 in0.0 mm 0.00 in0.0 mm
04:15 PM 25.0°F-3.9°C 11.5°F-11.4°C 56% 2.0 mph ESE3.2 kmh ESE 5.0 mph8.0 kmh 30.38 in1028.8 mb 0.00 in0.0 mm 0.00 in0.0 mm 0.00 in0.0 mm
04:20 PM 25.0°F-3.9°C 11.9°F-11.2°C 57% 1.0 mph 1.6 kmh 4.0 mph6.4 kmh 30.38 in1028.8 mb 0.00 in0.0 mm 0.00 in0.0 mm 0.00 in0.0 mm
04:25 PM 25.0°F-3.9°C 13.1°F-10.5°C 60% 1.0 mph ENE1.6 kmh ENE 3.0 mph4.8 kmh 30.38 in1028.8 mb 0.00 in0.0 mm 0.00 in0.0 mm 0.00 in0.0 mm
04:30 PM 24.8°F-4.0°C 12.5°F-10.8°C 59% 2.0 mph SE3.2 kmh SE 3.0 mph4.8 kmh 30.38 in1028.8 mb 0.00 in0.0 mm 0.00 in0.0 mm 0.00 in0.0 mm
04:35 PM 24.8°F-4.0°C 12.5°F-10.8°C 59% 3.0 mph ESE4.8 kmh ESE 6.0 mph9.7 kmh 30.38 in1028.8 mb 0.00 in0.0 mm 0.00 in0.0 mm 0.00 in0.0 mm
04:40 PM 24.6°F-4.1°C 13.5°F-10.3°C 62% Calm Calm 4.0 mph6.4 kmh 30.38 in1028.8 mb 0.00 in0.0 mm 0.00 in0.0 mm 0.00 in0.0 mm
04:45 PM 24.6°F-4.1°C 12.7°F-10.7°C 60% 2.0 mph ENE3.2 kmh ENE 2.0 mph3.2 kmh 30.38 in1028.8 mb 0.00 in0.0 mm 0.00 in0.0 mm 0.00 in0.0 mm
04:49 PM 24.6°F-4.1°C 11.2°F-11.6°C 56% 2.0 mph NNW3.2 kmh NNW 2.0 mph3.2 kmh 30.38 in1028.8 mb 0.00 in0.0 mm 0.00 in0.0 mm 0.00 in0.0 mm
04:54 PM 24.6°F-4.1°C 11.2°F-11.6°C 56% 3.0 mph ESE4.8 kmh ESE 3.0 mph4.8 kmh 30.38 in1028.8 mb 0.00 in0.0 mm 0.00 in0.0 mm 0.00 in0.0 mm
04:59 PM 24.4°F-4.2°C 12.5°F-10.8°C 60% 2.0 mph ESE3.2 kmh ESE 2.0 mph3.2 kmh 30.38 in1028.8 mb 0.00 in0.0 mm 0.00 in0.0 mm 0.00 in0.0 mm
05:03 PM 24.3°F-4.3°C 12.1°F-11.1°C 59% 3.0 mph ESE4.8 kmh ESE 3.0 mph4.8 kmh 30.37 in1028.4 mb 0.00 in0.0 mm 0.00 in0.0 mm 0.00 in0.0 mm
05:08 PM 24.3°F-4.3°C 11.7°F-11.3°C 58% 2.0 mph WNW3.2 kmh WNW 2.0 mph3.2 kmh 30.37 in1028.4 mb 0.00 in0.0 mm 0.00 in0.0 mm 0.00 in0.0 mm
05:13 PM 24.4°F-4.2°C 11.4°F-11.4°C 57% Calm Calm 1.0 mph1.6 kmh 30.37 in1028.4 mb 0.00 in0.0 mm 0.00 in0.0 mm 0.00 in0.0 mm
05:19 PM 23.9°F-4.5°C 12.1°F-11.1°C 60% 1.0 mph SE1.6 kmh SE 1.0 mph1.6 kmh 30.37 in1028.4 mb 0.00 in0.0 mm 0.00 in0.0 mm 0.00 in0.0 mm
05:22 PM 23.7°F-4.6°C 11.9°F-11.2°C 60% Calm Calm -- 30.37 in1028.4 mb 0.00 in0.0 mm 0.00 in0.0 mm 0.00 in0.0 mm
05:28 PM 23.7°F-4.6°C 11.9°F-11.2°C 60% Calm Calm -- 30.37 in1028.4 mb 0.00 in0.0 mm 0.00 in0.0 mm 0.00 in0.0 mm
05:41 PM 22.3°F-5.4°C 10.9°F-11.7°C 61% Calm Calm -- 30.37 in1028.4 mb 0.00 in0.0 mm 0.00 in0.0 mm 0.00 in0.0 mm
05:47 PM 21.9°F-5.6°C 10.9°F-11.7°C 62% Calm Calm -- 30.36 in1028.1 mb 0.00 in0.0 mm 0.00 in0.0 mm 0.00 in0.0 mm
05:51 PM 21.7°F-5.7°C 11.1°F-11.6°C 63% Calm Calm -- 30.37 in1028.4 mb 0.00 in0.0 mm 0.00 in0.0 mm 0.00 in0.0 mm
05:56 PM 21.2°F-6.0°C 11.3°F-11.5°C 65% Calm Calm -- 30.37 in1028.4 mb 0.00 in0.0 mm 0.00 in0.0 mm 0.00 in0.0 mm
06:01 PM 20.7°F-6.3°C 11.2°F-11.6°C 66% Calm Calm -- 30.36 in1028.1 mb 0.00 in0.0 mm 0.00 in0.0 mm 0.00 in0.0 mm
06:06 PM 20.5°F-6.4°C 11.0°F-11.7°C 66% Calm Calm -- 30.37 in1028.4 mb 0.00 in0.0 mm 0.00 in0.0 mm 0.00 in0.0 mm
06:11 PM 20.5°F-6.4°C 11.0°F-11.7°C 66% Calm Calm -- 30.37 in1028.4 mb 0.00 in0.0 mm 0.00 in0.0 mm 0.00 in0.0 mm
06:17 PM 19.6°F-6.9°C 13.0°F-10.6°C 75% Calm Calm -- 30.37 in1028.4 mb 0.00 in0.0 mm 0.00 in0.0 mm 0.00 in0.0 mm
06:21 PM 19.4°F-7.0°C 12.5°F-10.8°C 74% Calm Calm -- 30.37 in1028.4 mb 0.00 in0.0 mm 0.00 in0.0 mm 0.00 in0.0 mm
06:27 PM 19.4°F-7.0°C 11.2°F-11.6°C 70% Calm Calm -- 30.37 in1028.4 mb 0.00 in0.0 mm 0.00 in0.0 mm 0.00 in0.0 mm
06:32 PM 19.4°F-7.0°C 10.6°F-11.9°C 68% Calm Calm -- 30.37 in1028.4 mb 0.00 in0.0 mm 0.00 in0.0 mm 0.00 in0.0 mm
06:37 PM 19.2°F-7.1°C 10.7°F-11.8°C 69% Calm Calm -- 30.36 in1028.1 mb 0.00 in0.0 mm 0.00 in0.0 mm 0.00 in0.0 mm
06:42 PM 18.3°F-7.6°C 11.7°F-11.3°C 75% Calm Calm -- 30.36 in1028.1 mb 0.00 in0.0 mm 0.00 in0.0 mm 0.00 in0.0 mm
06:47 PM 18.0°F-7.8°C 11.7°F-11.3°C 76% Calm Calm -- 30.36 in1028.1 mb 0.00 in0.0 mm 0.00 in0.0 mm 0.00 in0.0 mm
06:51 PM 17.6°F-8.0°C 11.3°F-11.5°C 76% Calm Calm -- 30.36 in1028.1 mb 0.00 in0.0 mm 0.00 in0.0 mm 0.00 in0.0 mm
06:57 PM 16.9°F-8.4°C 11.8°F-11.2°C 80% 2.0 mph W3.2 kmh W 2.0 mph3.2 kmh 30.36 in1028.1 mb 0.00 in0.0 mm 0.00 in0.0 mm 0.00 in0.0 mm
07:01 PM 16.7°F-8.5°C 11.1°F-11.6°C 78% Calm Calm -- 30.36 in1028.1 mb 0.00 in0.0 mm 0.00 in0.0 mm 0.00 in0.0 mm
07:07 PM 16.7°F-8.5°C 10.5°F-11.9°C 76% Calm Calm -- 30.36 in1028.1 mb 0.00 in0.0 mm 0.00 in0.0 mm 0.00 in0.0 mm
07:11 PM 16.5°F-8.6°C 10.6°F-11.9°C 77% Calm Calm -- 30.36 in1028.1 mb 0.00 in0.0 mm 0.00 in0.0 mm 0.00 in0.0 mm
07:17 PM 16.2°F-8.8°C 11.4°F-11.4°C 81% Calm Calm -- 30.36 in1028.1 mb 0.00 in0.0 mm 0.00 in0.0 mm 0.00 in0.0 mm
07:22 PM 15.6°F-9.1°C 10.8°F-11.8°C 81% Calm Calm -- 30.36 in1028.1 mb 0.00 in0.0 mm 0.00 in0.0 mm 0.00 in0.0 mm
07:27 PM 15.4°F-9.2°C 10.6°F-11.9°C 81% Calm Calm -- 30.35 in1027.8 mb 0.00 in0.0 mm 0.00 in0.0 mm 0.00 in0.0 mm
07:32 PM 15.6°F-9.1°C 10.3°F-12.1°C 79% Calm Calm -- 30.35 in1027.8 mb 0.00 in0.0 mm 0.00 in0.0 mm 0.00 in0.0 mm
07:36 PM 14.9°F-9.5°C 10.4°F-12.0°C 82% 2.0 mph W3.2 kmh W 2.0 mph3.2 kmh 30.35 in1027.8 mb 0.00 in0.0 mm 0.00 in0.0 mm 0.00 in0.0 mm
07:42 PM 14.2°F-9.9°C 10.3°F-12.1°C 84% 1.0 mph WSW1.6 kmh WSW 2.0 mph3.2 kmh 30.35 in1027.8 mb 0.00 in0.0 mm 0.00 in0.0 mm 0.00 in0.0 mm
07:47 PM 14.4°F-9.8°C 9.9°F-12.3°C 82% Calm Calm -- 30.35 in1027.8 mb 0.00 in0.0 mm 0.00 in0.0 mm 0.00 in0.0 mm
07:52 PM 14.2°F-9.9°C 9.7°F-12.4°C 82% Calm Calm -- 30.35 in1027.8 mb 0.00 in0.0 mm 0.00 in0.0 mm 0.00 in0.0 mm
07:57 PM 14.5°F-9.7°C 9.8°F-12.3°C 81% Calm Calm -- 30.35 in1027.8 mb 0.00 in0.0 mm 0.00 in0.0 mm 0.00 in0.0 mm
08:02 PM 14.4°F-9.8°C 9.7°F-12.4°C 81% Calm Calm -- 30.34 in1027.4 mb 0.00 in0.0 mm 0.00 in0.0 mm 0.00 in0.0 mm
08:07 PM 14.0°F-10.0°C 9.8°F-12.3°C 83% Calm Calm -- 30.34 in1027.4 mb 0.00 in0.0 mm 0.00 in0.0 mm 0.00 in0.0 mm
08:12 PM 13.1°F-10.5°C 9.5°F-12.5°C 85% Calm Calm -- 30.34 in1027.4 mb 0.00 in0.0 mm 0.00 in0.0 mm 0.00 in0.0 mm
08:17 PM 12.9°F-10.6°C 9.3°F-12.6°C 85% 1.0 mph W1.6 kmh W 1.0 mph1.6 kmh 30.34 in1027.4 mb 0.00 in0.0 mm 0.00 in0.0 mm 0.00 in0.0 mm
08:22 PM 12.7°F-10.7°C 9.1°F-12.7°C 85% 1.0 mph W1.6 kmh W 1.0 mph1.6 kmh 30.34 in1027.4 mb 0.00 in0.0 mm 0.00 in0.0 mm 0.00 in0.0 mm
08:27 PM 13.3°F-10.4°C 8.9°F-12.8°C 82% Calm Calm -- 30.33 in1027.1 mb 0.00 in0.0 mm 0.00 in0.0 mm 0.00 in0.0 mm
08:32 PM 13.5°F-10.3°C 8.8°F-12.9°C 81% Calm Calm -- 30.33 in1027.1 mb 0.00 in0.0 mm 0.00 in0.0 mm 0.00 in0.0 mm
08:37 PM 13.3°F-10.4°C 8.6°F-13.0°C 81% Calm Calm -- 30.33 in1027.1 mb 0.00 in0.0 mm 0.00 in0.0 mm 0.00 in0.0 mm
08:42 PM 13.3°F-10.4°C 8.9°F-12.8°C 82% Calm Calm -- 30.33 in1027.1 mb 0.00 in0.0 mm 0.00 in0.0 mm 0.00 in0.0 mm
08:47 PM 13.3°F-10.4°C 9.1°F-12.7°C 83% Calm Calm -- 30.33 in1027.1 mb 0.00 in0.0 mm 0.00 in0.0 mm 0.00 in0.0 mm
08:52 PM 12.6°F-10.8°C 8.2°F-13.2°C 82% Calm Calm -- 30.33 in1027.1 mb 0.00 in0.0 mm 0.00 in0.0 mm 0.00 in0.0 mm
08:57 PM 12.0°F-11.1°C 8.1°F-13.3°C 84% Calm Calm -- 30.32 in1026.8 mb 0.00 in0.0 mm 0.00 in0.0 mm 0.00 in0.0 mm
09:02 PM 12.2°F-11.0°C 8.0°F-13.3°C 83% Calm Calm -- 30.32 in1026.8 mb 0.00 in0.0 mm 0.00 in0.0 mm 0.00 in0.0 mm
09:07 PM 11.1°F-11.6°C 7.7°F-13.5°C 86% 1.0 mph WSW1.6 kmh WSW 2.0 mph3.2 kmh 30.32 in1026.8 mb 0.00 in0.0 mm 0.00 in0.0 mm 0.00 in0.0 mm
09:12 PM 11.3°F-11.5°C 7.9°F-13.4°C 86% Calm Calm -- 30.32 in1026.8 mb 0.00 in0.0 mm 0.00 in0.0 mm 0.00 in0.0 mm
09:17 PM 11.1°F-11.6°C 7.5°F-13.6°C 85% Calm Calm -- 30.32 in1026.8 mb 0.00 in0.0 mm 0.00 in0.0 mm 0.00 in0.0 mm
09:22 PM 11.1°F-11.6°C 7.5°F-13.6°C 85% Calm Calm -- 30.32 in1026.8 mb 0.00 in0.0 mm 0.00 in0.0 mm 0.00 in0.0 mm
09:27 PM 11.1°F-11.6°C 7.5°F-13.6°C 85% Calm Calm -- 30.31 in1026.4 mb 0.00 in0.0 mm 0.00 in0.0 mm 0.00 in0.0 mm
09:32 PM 11.1°F-11.6°C 7.5°F-13.6°C 85% Calm Calm -- 30.31 in1026.4 mb 0.00 in0.0 mm 0.00 in0.0 mm 0.00 in0.0 mm
09:37 PM 11.5°F-11.4°C 7.6°F-13.6°C 84% 1.0 mph SE1.6 kmh SE 1.0 mph1.6 kmh 30.31 in1026.4 mb 0.00 in0.0 mm 0.00 in0.0 mm 0.00 in0.0 mm
09:42 PM 11.7°F-11.3°C 7.6°F-13.6°C 83% Calm Calm -- 30.31 in1026.4 mb 0.00 in0.0 mm 0.00 in0.0 mm 0.00 in0.0 mm
09:47 PM 11.7°F-11.3°C 7.6°F-13.6°C 83% Calm Calm -- 30.31 in1026.4 mb 0.00 in0.0 mm 0.00 in0.0 mm 0.00 in0.0 mm
09:52 PM 10.4°F-12.0°C 6.8°F-14.0°C 85% 2.0 mph W3.2 kmh W 2.0 mph3.2 kmh 30.31 in1026.4 mb 0.00 in0.0 mm 0.00 in0.0 mm 0.00 in0.0 mm
09:57 PM 10.2°F-12.1°C 6.9°F-13.9°C 86% Calm Calm -- 30.30 in1026.1 mb 0.00 in0.0 mm 0.00 in0.0 mm 0.00 in0.0 mm
10:02 PM 10.2°F-12.1°C 6.9°F-13.9°C 86% 1.0 mph WSW1.6 kmh WSW 1.0 mph1.6 kmh 30.30 in1026.1 mb 0.00 in0.0 mm 0.00 in0.0 mm 0.00 in0.0 mm
10:07 PM 10.4°F-12.0°C 6.8°F-14.0°C 85% Calm Calm -- 30.30 in1026.1 mb 0.00 in0.0 mm 0.00 in0.0 mm 0.00 in0.0 mm
10:12 PM 10.2°F-12.1°C 6.9°F-13.9°C 86% Calm Calm -- 30.29 in1025.7 mb 0.00 in0.0 mm 0.00 in0.0 mm 0.00 in0.0 mm
10:17 PM 10.6°F-11.9°C 7.0°F-13.9°C 85% Calm Calm -- 30.29 in1025.7 mb 0.00 in0.0 mm 0.00 in0.0 mm 0.00 in0.0 mm
10:22 PM 10.6°F-11.9°C 6.7°F-14.1°C 84% Calm Calm -- 30.29 in1025.7 mb 0.00 in0.0 mm 0.00 in0.0 mm 0.00 in0.0 mm
10:27 PM 10.4°F-12.0°C 6.8°F-14.0°C 85% Calm Calm -- 30.29 in1025.7 mb 0.00 in0.0 mm 0.00 in0.0 mm 0.00 in0.0 mm
10:32 PM 10.4°F-12.0°C 6.8°F-14.0°C 85% Calm Calm -- 30.29 in1025.7 mb 0.00 in0.0 mm 0.00 in0.0 mm 0.00 in0.0 mm
10:39 PM 10.2°F-12.1°C 6.6°F-14.1°C 85% Calm Calm -- 30.29 in1025.7 mb 0.00 in0.0 mm 0.00 in0.0 mm 0.00 in0.0 mm
10:44 PM 10.2°F-12.1°C 6.3°F-14.3°C 84% Calm Calm -- 30.29 in1025.7 mb 0.00 in0.0 mm 0.00 in0.0 mm 0.00 in0.0 mm
10:49 PM 10.0°F-12.2°C 6.2°F-14.3°C 84% Calm Calm -- 30.29 in1025.7 mb 0.00 in0.0 mm 0.00 in0.0 mm 0.00 in0.0 mm
10:54 PM 9.9°F-12.3°C 6.1°F-14.4°C 84% Calm Calm -- 30.29 in1025.7 mb 0.00 in0.0 mm 0.00 in0.0 mm 0.00 in0.0 mm
10:59 PM 9.7°F-12.4°C 5.9°F-14.5°C 84% Calm Calm -- 30.29 in1025.7 mb 0.00 in0.0 mm 0.00 in0.0 mm 0.00 in0.0 mm
11:05 PM 9.3°F-12.6°C 6.0°F-14.4°C 86% Calm Calm 2.0 mph3.2 kmh 30.28 in1025.4 mb 0.00 in0.0 mm 0.00 in0.0 mm 0.00 in0.0 mm
11:09 PM 9.0°F-12.8°C 5.7°F-14.6°C 86% Calm Calm -- 30.28 in1025.4 mb 0.00 in0.0 mm 0.00 in0.0 mm 0.00 in0.0 mm
11:14 PM 8.8°F-12.9°C 5.5°F-14.7°C 86% 1.0 mph WSW1.6 kmh WSW 2.0 mph3.2 kmh 30.27 in1025.1 mb 0.00 in0.0 mm 0.00 in0.0 mm 0.00 in0.0 mm
11:19 PM 9.7°F-12.4°C 6.1°F-14.4°C 85% Calm Calm -- 30.27 in1025.1 mb 0.00 in0.0 mm 0.00 in0.0 mm 0.00 in0.0 mm
11:24 PM 9.7°F-12.4°C 5.9°F-14.5°C 84% Calm Calm 1.0 mph1.6 kmh 30.27 in1025.1 mb 0.00 in0.0 mm 0.00 in0.0 mm 0.00 in0.0 mm
11:29 PM 9.0°F-12.8°C 5.7°F-14.6°C 86% Calm Calm -- 30.26 in1024.7 mb 0.00 in0.0 mm 0.00 in0.0 mm 0.00 in0.0 mm
11:34 PM 9.5°F-12.5°C 6.2°F-14.3°C 86% Calm Calm -- 30.26 in1024.7 mb 0.00 in0.0 mm 0.00 in0.0 mm 0.00 in0.0 mm
11:39 PM 9.7°F-12.4°C 6.1°F-14.4°C 85% Calm Calm -- 30.26 in1024.7 mb 0.00 in0.0 mm 0.00 in0.0 mm 0.00 in0.0 mm
11:44 PM 9.7°F-12.4°C 5.9°F-14.5°C 84% Calm Calm -- 30.26 in1024.7 mb 0.00 in0.0 mm 0.00 in0.0 mm 0.00 in0.0 mm
11:49 PM 9.3°F-12.6°C 5.7°F-14.6°C 85% Calm Calm -- 30.26 in1024.7 mb 0.00 in0.0 mm 0.00 in0.0 mm 0.00 in0.0 mm
11:54 PM 9.3°F-12.6°C 5.7°F-14.6°C 85% 1.0 mph SE1.6 kmh SE 1.0 mph1.6 kmh 30.26 in1024.7 mb 0.00 in0.0 mm 0.00 in0.0 mm 0.00 in0.0 mm